United Spirit — ELYB2 — position and weather

sailwx.info

Track history (hours):
 
Tides and Currents Weather Stations Pressure Air Temp Water Temp Dewpoint Dewpoint Depression Visibility Wind Speed Wind Dir Waves Ship Positions

United Spirit

Last reported at 2016-Jun-02 17:33 UTC. Time now 2016-Jun-27 09:41 UTC.
Position N 01°55' E 102°19'.
Warning: this ship's position is 24 days out of date.

Type: Cargo ship. MMSI: 636011280.

Date/timePositionNaut miles runAvg speedWind from/ knotsBaromVisibWave heightAir tempDewpointWater temp
2016-Jun-02 17:33N 01°55' E 102°19'1818.4
2016-Jun-02 16:33N 01°47' E 102°36'1818.1
2016-Jun-02 15:32N 01°40' E 102°52'5713.9
2016-Jun-02 11:26N 01°15' E 103°44'2 2.1
2016-Jun-02 10:16N 01°17' E 103°45'0 0.0
2016-Jun-02 09:28N 01°17' E 103°45'0 0.0
2016-Jun-02 08:16N 01°17' E 103°45'0 0.0
2016-Jun-02 07:28N 01°17' E 103°45'0 0.0
2016-Jun-02 06:10N 01°17' E 103°45'0 0.0
2016-Jun-02 04:31N 01°17' E 103°45'0 0.0
2016-Jun-02 03:28N 01°17' E 103°45'0 0.0
2016-Jun-02 02:28N 01°17' E 103°45'0 0.0
2016-Jun-02 01:28N 01°17' E 103°45'1 0.6
2016-Jun-02 00:32N 01°17' E 103°45'5 4.7
2016-Jun-01 23:33N 01°14' E 103°42'76 7.6
2016-Jun-01 13:26N 01°46' E 102°32'1010.9
2016-Jun-01 12:33N 01°50' E 102°24'  
Track history (hours):
 
Tides and Currents Weather Stations Pressure Air Temp Water Temp Dewpoint Dewpoint Depression Visibility Wind Speed Wind Dir Waves Ship Positions

United Spirit

Last reported at 2016-Jun-02 17:33 UTC. Time now 2016-Jun-27 09:41 UTC.
Position N 01°55' E 102°19'.
Warning: this ship's position is 24 days out of date.

Type: Cargo ship. MMSI: 636011280.

Date/timePositionNaut miles runAvg speedWind from/ knotsBaromVisibWave heightAir tempDewpointWater temp
2016-Jun-02 17:33N 01°55' E 102°19'1818.4
2016-Jun-02 16:33N 01°47' E 102°36'1818.1
2016-Jun-02 15:32N 01°40' E 102°52'5713.9
2016-Jun-02 11:26N 01°15' E 103°44'2 2.1
2016-Jun-02 10:16N 01°17' E 103°45'0 0.0
2016-Jun-02 09:28N 01°17' E 103°45'0 0.0
2016-Jun-02 08:16N 01°17' E 103°45'0 0.0
2016-Jun-02 07:28N 01°17' E 103°45'0 0.0
2016-Jun-02 06:10N 01°17' E 103°45'0 0.0
2016-Jun-02 04:31N 01°17' E 103°45'0 0.0
2016-Jun-02 03:28N 01°17' E 103°45'0 0.0
2016-Jun-02 02:28N 01°17' E 103°45'0 0.0
2016-Jun-02 01:28N 01°17' E 103°45'1 0.6
2016-Jun-02 00:32N 01°17' E 103°45'5 4.7
2016-Jun-01 23:33N 01°14' E 103°42'76 7.6
2016-Jun-01 13:26N 01°46' E 102°32'1010.9
2016-Jun-01 12:33N 01°50' E 102°24'  

Dump ship's entire track history